This is the latest recevied weather packets stored in our database for station/object OK3MS-5. If no packets are shown the sender has not sent any weather packets the latest 10 day(s).
| Time | Temp. | Humidity | Pressure | Rain* | Wind** | Luminosity | Snow |
|---|---|---|---|---|---|---|---|
| 1777383605 | 16.67° C | 34% | 1017.6 hPa | 0 mm | - | 470 W/m² | - |
| 1777383303 | 17.22° C | 33% | 1017.4 hPa | 0 mm | - | 391 W/m² | - |
| 1777381207 | 16.67° C | 31% | 1017.9 hPa | 0 mm | - | 544 W/m² | - |
| 1777380610 | 17.22° C | 31% | 1017.9 hPa | 0 mm | - | 543 W/m² | - |
| 1777380303 | 16.67° C | 33% | 1017.9 hPa | 0 mm | - | 535 W/m² | - |
| 1777380021 | 16.67° C | 32% | 1017.9 hPa | 0 mm | - | 562 W/m² | - |
| 1777379703 | 16.67° C | 32% | 1017.9 hPa | 0 mm | - | 607 W/m² | - |
| 1777379406 | 16.67° C | 32% | 1018 hPa | 0 mm | - | 473 W/m² | - |
| 1777379110 | 16.67° C | 33% | 1018 hPa | 0 mm | - | 552 W/m² | - |
| 1777378803 | 16.67° C | 32% | 1018 hPa | 0 mm | - | 665 W/m² | - |
| 1777378506 | 16.67° C | 30% | 1018 hPa | 0 mm | - | 668 W/m² | - |
| 1777378204 | 16.67° C | 34% | 1018.2 hPa | 0 mm | - | 677 W/m² | - |
| 1777377904 | 16.67° C | 32% | 1018.2 hPa | 0 mm | - | 726 W/m² | - |
| 1777377604 | 16.11° C | 32% | 1018.3 hPa | 0 mm | - | 646 W/m² | - |
| 1777377306 | 16.11° C | 34% | 1018.4 hPa | 0 mm | - | 592 W/m² | - |
| 1777377002 | 16.11° C | 33% | 1018.5 hPa | 0 mm | - | 578 W/m² | - |
| 1777376708 | 16.11° C | 30% | 1018.4 hPa | 0 mm | - | 420 W/m² | - |
| 1777376402 | 15.56° C | 32% | 1018.5 hPa | 0 mm | - | 666 W/m² | - |
| 1777376105 | 16.11° C | 32% | 1018.4 hPa | 0 mm | - | 744 W/m² | - |
| 1777375805 | 16.67° C | 32% | 1018.4 hPa | 0 mm | - | 654 W/m² | - |
| 1777375505 | 16.11° C | 34% | 1018.5 hPa | 0 mm | - | 734 W/m² | - |
| 1777375204 | 16.67° C | 32% | 1018.3 hPa | 0 mm | - | 729 W/m² | - |
| 1777374902 | 16.11° C | 32% | 1018.6 hPa | 0 mm | - | 727 W/m² | - |
| 1777374603 | 15° C | 32% | 1018.8 hPa | 0 mm | - | 729 W/m² | - |
| 1777374305 | 15.56° C | 32% | 1018.6 hPa | 0 mm | - | 730 W/m² | - |
* Rain latest hour (hover to see other rain measurements)
** Current wind speed in m/s (hover to see current wind gust speed)